sensor_id;sensor_type;location;lat;lon;timestamp;pressure;altitude;pressure_sealevel;temperature;humidity
18755;BME280;35061;47.664;9.166;2023-06-10T00:01:10;101060.90;;;19.85;49.82
18755;BME280;35061;47.664;9.166;2023-06-10T00:03:38;101053.84;;;19.80;49.95
18755;BME280;35061;47.664;9.166;2023-06-10T00:06:06;101059.20;;;19.76;50.02
18755;BME280;35061;47.664;9.166;2023-06-10T00:08:34;101060.27;;;19.73;50.09
18755;BME280;35061;47.664;9.166;2023-06-10T00:11:02;101068.55;;;19.69;50.23
18755;BME280;35061;47.664;9.166;2023-06-10T00:13:30;101067.53;;;19.66;50.32
18755;BME280;35061;47.664;9.166;2023-06-10T00:15:58;101068.41;;;19.61;50.51
18755;BME280;35061;47.664;9.166;2023-06-10T00:18:26;101068.74;;;19.57;50.70
18755;BME280;35061;47.664;9.166;2023-06-10T00:20:54;101067.47;;;19.52;50.82
18755;BME280;35061;47.664;9.166;2023-06-10T00:23:22;101072.05;;;19.48;50.95
18755;BME280;35061;47.664;9.166;2023-06-10T00:25:52;101067.34;;;19.45;51.08
18755;BME280;35061;47.664;9.166;2023-06-10T00:28:20;101069.01;;;19.40;51.50
18755;BME280;35061;47.664;9.166;2023-06-10T00:30:48;101070.31;;;19.39;51.76
18755;BME280;35061;47.664;9.166;2023-06-10T00:33:16;101070.97;;;19.32;52.48
18755;BME280;35061;47.664;9.166;2023-06-10T00:35:44;101066.26;;;19.29;52.65
18755;BME280;35061;47.664;9.166;2023-06-10T00:38:13;101067.34;;;19.25;52.85
18755;BME280;35061;47.664;9.166;2023-06-10T00:40:42;101064.52;;;19.20;53.22
18755;BME280;35061;47.664;9.166;2023-06-10T00:43:10;101061.91;;;19.16;53.36
18755;BME280;35061;47.664;9.166;2023-06-10T00:45:38;101057.46;;;19.15;53.48
18755;BME280;35061;47.664;9.166;2023-06-10T00:48:06;101061.23;;;19.10;53.91
18755;BME280;35061;47.664;9.166;2023-06-10T00:50:35;101067.89;;;19.05;53.90
18755;BME280;35061;47.664;9.166;2023-06-10T00:53:07;101069.23;;;19.04;53.98
18755;BME280;35061;47.664;9.166;2023-06-10T00:55:36;101057.66;;;18.98;54.10
18755;BME280;35061;47.664;9.166;2023-06-10T00:58:04;101060.11;;;18.94;54.15
18755;BME280;35061;47.664;9.166;2023-06-10T01:00:32;101050.66;;;18.88;54.24
18755;BME280;35061;47.664;9.166;2023-06-10T01:03:00;101052.55;;;18.85;54.21
18755;BME280;35061;47.664;9.166;2023-06-10T01:05:28;101057.59;;;18.85;54.33
18755;BME280;35061;47.664;9.166;2023-06-10T01:07:57;101051.84;;;18.79;54.42
18755;BME280;35061;47.664;9.166;2023-06-10T01:13:09;101063.52;;;18.73;54.85
18755;BME280;35061;47.664;9.166;2023-06-10T01:15:39;101059.59;;;18.71;54.53
18755;BME280;35061;47.664;9.166;2023-06-10T01:18:08;101061.45;;;18.68;54.62
18755;BME280;35061;47.664;9.166;2023-06-10T01:20:38;101051.77;;;18.65;54.81
18755;BME280;35061;47.664;9.166;2023-06-10T01:23:08;101049.71;;;18.60;55.00
18755;BME280;35061;47.664;9.166;2023-06-10T01:25:46;101068.19;;;18.57;55.15
18755;BME280;35061;47.664;9.166;2023-06-10T01:28:36;101060.90;;;18.50;55.83
18755;BME280;35061;47.664;9.166;2023-06-10T01:31:13;101054.59;;;18.46;56.07
18755;BME280;35061;47.664;9.166;2023-06-10T01:33:47;101066.20;;;18.46;55.86
18755;BME280;35061;47.664;9.166;2023-06-10T01:36:16;101066.75;;;18.45;56.25
18755;BME280;35061;47.664;9.166;2023-06-10T01:38:47;101063.91;;;18.39;56.27
18755;BME280;35061;47.664;9.166;2023-06-10T01:41:18;101066.55;;;18.37;56.54
18755;BME280;35061;47.664;9.166;2023-06-10T01:43:49;101065.77;;;18.36;56.83
18755;BME280;35061;47.664;9.166;2023-06-10T01:46:17;101074.01;;;18.32;56.73
18755;BME280;35061;47.664;9.166;2023-06-10T01:48:48;101074.04;;;18.26;57.03
18755;BME280;35061;47.664;9.166;2023-06-10T01:51:16;101072.54;;;18.20;57.28
18755;BME280;35061;47.664;9.166;2023-06-10T01:53:44;101078.39;;;18.14;57.32
18755;BME280;35061;47.664;9.166;2023-06-10T01:56:12;101079.99;;;18.09;57.38
18755;BME280;35061;47.664;9.166;2023-06-10T01:58:46;101082.19;;;18.03;57.56
18755;BME280;35061;47.664;9.166;2023-06-10T02:01:14;101080.32;;;18.00;57.75
18755;BME280;35061;47.664;9.166;2023-06-10T02:03:42;101076.95;;;17.96;58.12
18755;BME280;35061;47.664;9.166;2023-06-10T02:06:10;101088.30;;;17.94;58.25
18755;BME280;35061;47.664;9.166;2023-06-10T02:08:38;101088.59;;;17.90;58.45
18755;BME280;35061;47.664;9.166;2023-06-10T02:11:06;101077.84;;;17.85;58.58
18755;BME280;35061;47.664;9.166;2023-06-10T02:13:34;101086.01;;;17.81;58.61
18755;BME280;35061;47.664;9.166;2023-06-10T02:16:02;101084.73;;;17.76;58.73
18755;BME280;35061;47.664;9.166;2023-06-10T02:18:31;101088.46;;;17.71;58.80
18755;BME280;35061;47.664;9.166;2023-06-10T02:20:59;101097.75;;;17.64;59.07
18755;BME280;35061;47.664;9.166;2023-06-10T02:23:27;101098.83;;;17.61;58.99
18755;BME280;35061;47.664;9.166;2023-06-10T02:25:54;101104.87;;;17.57;59.03
18755;BME280;35061;47.664;9.166;2023-06-10T02:28:23;101103.83;;;17.54;59.23
18755;BME280;35061;47.664;9.166;2023-06-10T02:30:51;101094.91;;;17.52;59.24
18755;BME280;35061;47.664;9.166;2023-06-10T02:33:19;101097.00;;;17.52;59.44
18755;BME280;35061;47.664;9.166;2023-06-10T02:35:47;101104.68;;;17.49;59.64
18755;BME280;35061;47.664;9.166;2023-06-10T02:38:15;101110.99;;;17.48;59.79
18755;BME280;35061;47.664;9.166;2023-06-10T02:40:44;101112.34;;;17.47;59.95
18755;BME280;35061;47.664;9.166;2023-06-10T02:43:12;101107.63;;;17.43;60.06
18755;BME280;35061;47.664;9.166;2023-06-10T02:45:40;101106.58;;;17.41;60.11
18755;BME280;35061;47.664;9.166;2023-06-10T02:48:08;101108.41;;;17.38;60.32
18755;BME280;35061;47.664;9.166;2023-06-10T02:50:36;101110.83;;;17.34;60.59
18755;BME280;35061;47.664;9.166;2023-06-10T02:53:04;101119.27;;;17.32;60.57
18755;BME280;35061;47.664;9.166;2023-06-10T02:55:32;101109.52;;;17.29;60.63
18755;BME280;35061;47.664;9.166;2023-06-10T02:58:00;101113.51;;;17.26;60.73
18755;BME280;35061;47.664;9.166;2023-06-10T03:00:28;101116.13;;;17.24;60.89
18755;BME280;35061;47.664;9.166;2023-06-10T03:02:56;101119.33;;;17.21;61.04
18755;BME280;35061;47.664;9.166;2023-06-10T03:05:25;101120.38;;;17.18;61.21
18755;BME280;35061;47.664;9.166;2023-06-10T03:07:53;101113.55;;;17.15;61.54
18755;BME280;35061;47.664;9.166;2023-06-10T03:10:21;101120.15;;;17.10;61.67
18755;BME280;35061;47.664;9.166;2023-06-10T03:12:48;101125.94;;;17.10;61.80
18755;BME280;35061;47.664;9.166;2023-06-10T03:15:17;101131.98;;;17.06;62.00
18755;BME280;35061;47.664;9.166;2023-06-10T03:17:44;101133.06;;;17.03;62.22
18755;BME280;35061;47.664;9.166;2023-06-10T03:20:13;101139.93;;;17.00;62.53
18755;BME280;35061;47.664;9.166;2023-06-10T03:22:43;101141.17;;;16.99;62.52
18755;BME280;35061;47.664;9.166;2023-06-10T03:25:11;101144.87;;;16.99;62.64
18755;BME280;35061;47.664;9.166;2023-06-10T03:27:42;101137.28;;;16.96;62.72
18755;BME280;35061;47.664;9.166;2023-06-10T03:30:11;101134.90;;;16.95;62.86
18755;BME280;35061;47.664;9.166;2023-06-10T03:32:40;101137.28;;;16.91;63.12
18755;BME280;35061;47.664;9.166;2023-06-10T03:35:08;101144.41;;;16.90;63.24
18755;BME280;35061;47.664;9.166;2023-06-10T03:37:37;101151.48;;;16.88;63.30
18755;BME280;35061;47.664;9.166;2023-06-10T03:40:06;101147.03;;;16.87;63.45
18755;BME280;35061;47.664;9.166;2023-06-10T03:42:35;101139.67;;;16.86;63.64
18755;BME280;35061;47.664;9.166;2023-06-10T03:45:03;101149.64;;;16.85;63.86
18755;BME280;35061;47.664;9.166;2023-06-10T03:47:36;101152.03;;;16.87;64.02
18755;BME280;35061;47.664;9.166;2023-06-10T03:50:05;101152.81;;;16.87;64.47
18755;BME280;35061;47.664;9.166;2023-06-10T03:52:33;101156.25;;;16.86;64.60
18755;BME280;35061;47.664;9.166;2023-06-10T03:55:01;101156.77;;;16.84;64.88
18755;BME280;35061;47.664;9.166;2023-06-10T03:57:29;101160.47;;;16.85;64.70
18755;BME280;35061;47.664;9.166;2023-06-10T03:59:57;101152.55;;;16.85;64.80
18755;BME280;35061;47.664;9.166;2023-06-10T04:02:25;101155.43;;;16.85;64.93
18755;BME280;35061;47.664;9.166;2023-06-10T04:04:53;101162.04;;;16.86;65.07
18755;BME280;35061;47.664;9.166;2023-06-10T04:07:21;101156.25;;;16.86;65.09
18755;BME280;35061;47.664;9.166;2023-06-10T04:09:49;101159.13;;;16.86;65.15
18755;BME280;35061;47.664;9.166;2023-06-10T04:12:18;101164.91;;;16.86;65.21
18755;BME280;35061;47.664;9.166;2023-06-10T04:14:46;101164.36;;;16.87;65.33
18755;BME280;35061;47.664;9.166;2023-06-10T04:17:14;101165.93;;;16.88;65.41
18755;BME280;35061;47.664;9.166;2023-06-10T04:19:42;101153.11;;;16.84;65.79
18755;BME280;35061;47.664;9.166;2023-06-10T04:22:10;101161.22;;;16.85;65.88
18755;BME280;35061;47.664;9.166;2023-06-10T04:24:38;101165.70;;;16.86;66.11
18755;BME280;35061;47.664;9.166;2023-06-10T04:27:06;101166.75;;;16.89;66.23
18755;BME280;35061;47.664;9.166;2023-06-10T04:29:34;101167.79;;;16.92;66.20
18755;BME280;35061;47.664;9.166;2023-06-10T04:32:02;101176.20;;;16.95;66.37
18755;BME280;35061;47.664;9.166;2023-06-10T04:34:30;101183.33;;;17.00;66.28
18755;BME280;35061;47.664;9.166;2023-06-10T04:36:58;101176.98;;;17.01;66.64
18755;BME280;35061;47.664;9.166;2023-06-10T04:39:26;101180.68;;;17.02;66.76
18755;BME280;35061;47.664;9.166;2023-06-10T04:41:54;101181.98;;;17.07;66.75
18755;BME280;35061;47.664;9.166;2023-06-10T04:44:23;101181.43;;;17.08;66.77
18755;BME280;35061;47.664;9.166;2023-06-10T04:46:51;101191.40;;;17.13;66.68
18755;BME280;35061;47.664;9.166;2023-06-10T04:49:19;101190.88;;;17.14;66.74
18755;BME280;35061;47.664;9.166;2023-06-10T04:51:47;101186.14;;;17.17;66.62
18755;BME280;35061;47.664;9.166;2023-06-10T04:54:15;101185.58;;;17.19;66.65
18755;BME280;35061;47.664;9.166;2023-06-10T04:56:43;101186.14;;;17.23;66.86
18755;BME280;35061;47.664;9.166;2023-06-10T04:59:11;101187.15;;;17.25;66.84
18755;BME280;35061;47.664;9.166;2023-06-10T05:01:39;101186.37;;;17.25;67.03
18755;BME280;35061;47.664;9.166;2023-06-10T05:04:07;101194.25;;;17.30;66.92
18755;BME280;35061;47.664;9.166;2023-06-10T05:06:35;101196.86;;;17.34;66.93
18755;BME280;35061;47.664;9.166;2023-06-10T05:09:04;101192.13;;;17.36;67.02
18755;BME280;35061;47.664;9.166;2023-06-10T05:11:33;101193.92;;;17.39;67.02
18755;BME280;35061;47.664;9.166;2023-06-10T05:14:01;101192.32;;;17.44;66.90
18755;BME280;35061;47.664;9.166;2023-06-10T05:16:29;101197.32;;;17.49;66.83
18755;BME280;35061;47.664;9.166;2023-06-10T05:18:57;101194.15;;;17.53;66.62
18755;BME280;35061;47.664;9.166;2023-06-10T05:21:25;101205.70;;;17.58;66.32
18755;BME280;35061;47.664;9.166;2023-06-10T05:23:52;101209.87;;;17.63;66.05
18755;BME280;35061;47.664;9.166;2023-06-10T05:26:21;101210.37;;;17.67;65.95
18755;BME280;35061;47.664;9.166;2023-06-10T05:28:49;101213.54;;;17.69;65.59
18755;BME280;35061;47.664;9.166;2023-06-10T05:31:17;101212.46;;;17.72;65.43
18755;BME280;35061;47.664;9.166;2023-06-10T05:33:45;101212.73;;;17.75;65.31
18755;BME280;35061;47.664;9.166;2023-06-10T05:36:13;101214.00;;;17.79;65.17
18755;BME280;35061;47.664;9.166;2023-06-10T05:38:41;101218.19;;;17.84;65.19
18755;BME280;35061;47.664;9.166;2023-06-10T05:41:09;101219.43;;;17.94;65.00
18755;BME280;35061;47.664;9.166;2023-06-10T05:43:37;101220.99;;;18.01;64.80
18755;BME280;35061;47.664;9.166;2023-06-10T05:46:05;101226.72;;;18.12;64.79
18755;BME280;35061;47.664;9.166;2023-06-10T05:48:33;101226.66;;;18.24;64.63
18755;BME280;35061;47.664;9.166;2023-06-10T05:51:01;101236.01;;;18.36;64.47
18755;BME280;35061;47.664;9.166;2023-06-10T05:53:29;101228.32;;;18.44;63.86
18755;BME280;35061;47.664;9.166;2023-06-10T05:55:57;101227.70;;;18.57;63.55
18755;BME280;35061;47.664;9.166;2023-06-10T05:58:26;101230.71;;;18.71;63.36
18755;BME280;35061;47.664;9.166;2023-06-10T06:00:54;101224.92;;;18.95;63.07
18755;BME280;35061;47.664;9.166;2023-06-10T06:03:22;101227.73;;;19.32;62.27
18755;BME280;35061;47.664;9.166;2023-06-10T06:05:50;101232.64;;;19.62;61.39
18755;BME280;35061;47.664;9.166;2023-06-10T06:08:18;101227.21;;;19.72;60.43
18755;BME280;35061;47.664;9.166;2023-06-10T06:10:46;101230.02;;;19.77;60.03
18755;BME280;35061;47.664;9.166;2023-06-10T06:13:15;101231.13;;;19.74;60.10
18755;BME280;35061;47.664;9.166;2023-06-10T06:15:43;101221.39;;;19.72;60.00
18755;BME280;35061;47.664;9.166;2023-06-10T06:18:11;101225.70;;;19.65;59.93
18755;BME280;35061;47.664;9.166;2023-06-10T06:20:39;101222.34;;;19.61;59.95
18755;BME280;35061;47.664;9.166;2023-06-10T06:23:07;101227.90;;;19.59;59.79
18755;BME280;35061;47.664;9.166;2023-06-10T06:25:38;101221.55;;;19.60;59.71
18755;BME280;35061;47.664;9.166;2023-06-10T06:28:07;101229.23;;;19.58;59.70
18755;BME280;35061;47.664;9.166;2023-06-10T06:30:36;101229.23;;;19.58;59.55
18755;BME280;35061;47.664;9.166;2023-06-10T06:33:04;101226.33;;;19.58;59.38
18755;BME280;35061;47.664;9.166;2023-06-10T06:35:33;101225.25;;;19.61;59.56
18755;BME280;35061;47.664;9.166;2023-06-10T06:38:01;101221.62;;;19.74;59.79
18755;BME280;35061;47.664;9.166;2023-06-10T06:40:31;101223.16;;;20.00;59.39
18755;BME280;35061;47.664;9.166;2023-06-10T06:42:59;101220.84;;;19.92;59.32
18755;BME280;35061;47.664;9.166;2023-06-10T06:45:27;101223.68;;;19.98;59.27
18755;BME280;35061;47.664;9.166;2023-06-10T06:47:55;101225.84;;;19.98;58.93
18755;BME280;35061;47.664;9.166;2023-06-10T06:50:24;101223.45;;;19.96;58.91
18755;BME280;35061;47.664;9.166;2023-06-10T06:52:51;101226.59;;;19.98;58.95
18755;BME280;35061;47.664;9.166;2023-06-10T06:55:19;101225.57;;;19.96;58.99
18755;BME280;35061;47.664;9.166;2023-06-10T06:57:47;101220.54;;;19.96;58.79
18755;BME280;35061;47.664;9.166;2023-06-10T07:00:15;101232.48;;;19.92;58.83
18755;BME280;35061;47.664;9.166;2023-06-10T07:02:44;101232.48;;;19.92;58.88
18755;BME280;35061;47.664;9.166;2023-06-10T07:05:12;101227.99;;;19.91;58.94
18755;BME280;35061;47.664;9.166;2023-06-10T07:07:40;101233.81;;;19.91;59.00
18755;BME280;35061;47.664;9.166;2023-06-10T07:10:08;101234.05;;;19.93;58.96
18755;BME280;35061;47.664;9.166;2023-06-10T07:12:36;101221.81;;;20.01;59.00
18755;BME280;35061;47.664;9.166;2023-06-10T07:15:04;101224.85;;;20.08;58.69
18755;BME280;35061;47.664;9.166;2023-06-10T07:17:32;101220.99;;;20.19;58.23
18755;BME280;35061;47.664;9.166;2023-06-10T07:20:02;101223.02;;;20.25;58.20
18755;BME280;35061;47.664;9.166;2023-06-10T07:22:30;101222.92;;;20.30;58.06
18755;BME280;35061;47.664;9.166;2023-06-10T07:24:58;101221.26;;;20.35;57.85
18755;BME280;35061;47.664;9.166;2023-06-10T07:27:26;101223.02;;;20.25;57.67
18755;BME280;35061;47.664;9.166;2023-06-10T07:29:54;101223.25;;;20.27;57.78
18755;BME280;35061;47.664;9.166;2023-06-10T07:32:22;101225.28;;;20.32;57.71
18755;BME280;35061;47.664;9.166;2023-06-10T07:34:51;101222.27;;;20.38;57.85
18755;BME280;35061;47.664;9.166;2023-06-10T07:37:19;101218.74;;;20.45;57.77
18755;BME280;35061;47.664;9.166;2023-06-10T07:39:47;101215.14;;;20.52;57.52
18755;BME280;35061;47.664;9.166;2023-06-10T07:42:15;101228.16;;;20.64;57.29
18755;BME280;35061;47.664;9.166;2023-06-10T07:44:43;101220.93;;;20.71;57.05
18755;BME280;35061;47.664;9.166;2023-06-10T07:47:11;101216.26;;;20.82;56.81
18755;BME280;35061;47.664;9.166;2023-06-10T07:49:39;101219.85;;;20.88;56.63
18755;BME280;35061;47.664;9.166;2023-06-10T07:52:08;101225.45;;;20.99;56.33
18755;BME280;35061;47.664;9.166;2023-06-10T07:54:36;101227.47;;;21.04;56.00
18755;BME280;35061;47.664;9.166;2023-06-10T07:57:04;101222.11;;;21.09;55.90
18755;BME280;35061;47.664;9.166;2023-06-10T07:59:34;101223.65;;;21.10;55.98
18755;BME280;35061;47.664;9.166;2023-06-10T08:02:02;101231.16;;;21.18;55.99
18755;BME280;35061;47.664;9.166;2023-06-10T08:04:30;101228.02;;;21.30;55.74
18755;BME280;35061;47.664;9.166;2023-06-10T08:06:59;101227.34;;;21.37;55.55
18755;BME280;35061;47.664;9.166;2023-06-10T08:09:27;101232.51;;;21.44;55.46
18755;BME280;35061;47.664;9.166;2023-06-10T08:11:55;101238.20;;;21.50;55.25
18755;BME280;35061;47.664;9.166;2023-06-10T08:14:23;101234.73;;;21.52;55.06
18755;BME280;35061;47.664;9.166;2023-06-10T08:16:51;101233.81;;;21.57;54.91
18755;BME280;35061;47.664;9.166;2023-06-10T08:19:19;101229.76;;;21.60;54.90
18755;BME280;35061;47.664;9.166;2023-06-10T08:21:47;101232.84;;;21.68;54.82
18755;BME280;35061;47.664;9.166;2023-06-10T08:24:16;101231.36;;;21.74;54.59
18755;BME280;35061;47.664;9.166;2023-06-10T08:26:46;101227.30;;;21.78;54.50
18755;BME280;35061;47.664;9.166;2023-06-10T08:29:14;101229.34;;;21.83;54.31
18755;BME280;35061;47.664;9.166;2023-06-10T08:31:43;101227.60;;;21.87;54.18
18755;BME280;35061;47.664;9.166;2023-06-10T08:34:11;101230.19;;;21.91;53.69
18755;BME280;35061;47.664;9.166;2023-06-10T08:36:39;101230.97;;;21.92;53.59
18755;BME280;35061;47.664;9.166;2023-06-10T08:39:08;101221.88;;;21.95;53.50
18755;BME280;35061;47.664;9.166;2023-06-10T08:41:42;101225.21;;;21.99;53.36
18755;BME280;35061;47.664;9.166;2023-06-10T08:44:22;101222.17;;;22.05;53.23
18755;BME280;35061;47.664;9.166;2023-06-10T08:47:02;101221.03;;;22.08;52.86
18755;BME280;35061;47.664;9.166;2023-06-10T08:49:34;101221.48;;;22.12;52.92
18755;BME280;35061;47.664;9.166;2023-06-10T08:52:06;101222.70;;;22.17;53.02
18755;BME280;35061;47.664;9.166;2023-06-10T08:54:37;101224.10;;;22.24;53.11
18755;BME280;35061;47.664;9.166;2023-06-10T08:57:06;101220.51;;;22.31;53.12
18755;BME280;35061;47.664;9.166;2023-06-10T08:59:34;101212.16;;;22.35;52.96
18755;BME280;35061;47.664;9.166;2023-06-10T09:02:04;101222.89;;;22.40;53.04
18755;BME280;35061;47.664;9.166;2023-06-10T09:04:32;101213.02;;;22.43;53.14
18755;BME280;35061;47.664;9.166;2023-06-10T09:07:02;101222.66;;;22.52;53.01
18755;BME280;35061;47.664;9.166;2023-06-10T09:09:30;101208.70;;;22.58;52.83
18755;BME280;35061;47.664;9.166;2023-06-10T09:11:59;101208.77;;;22.66;52.69
18755;BME280;35061;47.664;9.166;2023-06-10T09:14:27;101211.74;;;22.74;52.38
18755;BME280;35061;47.664;9.166;2023-06-10T09:16:55;101213.93;;;22.81;52.20
18755;BME280;35061;47.664;9.166;2023-06-10T09:19:26;101216.91;;;22.89;51.89
18755;BME280;35061;47.664;9.166;2023-06-10T09:21:54;101219.10;;;22.96;51.58
18755;BME280;35061;47.664;9.166;2023-06-10T09:24:22;101209.42;;;23.01;51.40
18755;BME280;35061;47.664;9.166;2023-06-10T09:27:05;101210.83;;;23.08;51.21
18755;BME280;35061;47.664;9.166;2023-06-10T09:29:55;101206.18;;;23.12;51.22
18755;BME280;35061;47.664;9.166;2023-06-10T09:32:26;101214.42;;;23.22;51.25
18755;BME280;35061;47.664;9.166;2023-06-10T09:34:54;101209.32;;;23.22;50.99
18755;BME280;35061;47.664;9.166;2023-06-10T09:37:23;101205.73;;;23.30;50.75
18755;BME280;35061;47.664;9.166;2023-06-10T09:40:05;101215.30;;;23.38;50.78
18755;BME280;35061;47.664;9.166;2023-06-10T09:42:35;101211.61;;;23.45;50.58
18755;BME280;35061;47.664;9.166;2023-06-10T09:45:04;101216.16;;;23.54;50.61
18755;BME280;35061;47.664;9.166;2023-06-10T09:47:33;101212.69;;;23.63;50.45
18755;BME280;35061;47.664;9.166;2023-06-10T09:50:01;101212.10;;;23.73;50.25
18755;BME280;35061;47.664;9.166;2023-06-10T09:52:29;101212.16;;;23.80;50.30
18755;BME280;35061;47.664;9.166;2023-06-10T09:55:01;101214.52;;;23.90;50.20
18755;BME280;35061;47.664;9.166;2023-06-10T09:57:33;101210.07;;;23.96;49.69
18755;BME280;35061;47.664;9.166;2023-06-10T10:00:06;101208.73;;;24.05;49.47
18755;BME280;35061;47.664;9.166;2023-06-10T10:02:49;101206.22;;;24.09;49.57
18755;BME280;35061;47.664;9.166;2023-06-10T10:05:19;101194.94;;;24.14;49.35
18755;BME280;35061;47.664;9.166;2023-06-10T10:07:48;101198.43;;;24.20;49.35
18755;BME280;35061;47.664;9.166;2023-06-10T10:10:18;101204.88;;;24.26;49.14
18755;BME280;35061;47.664;9.166;2023-06-10T10:12:48;101201.77;;;24.32;48.89
18755;BME280;35061;47.664;9.166;2023-06-10T10:15:19;101197.84;;;24.37;48.74
18755;BME280;35061;47.664;9.166;2023-06-10T10:17:52;101199.80;;;24.42;48.43
18755;BME280;35061;47.664;9.166;2023-06-10T10:20:29;101192.22;;;24.47;48.21
18755;BME280;35061;47.664;9.166;2023-06-10T10:22:59;101188.88;;;24.50;48.27
18755;BME280;35061;47.664;9.166;2023-06-10T10:25:38;101185.78;;;24.56;48.30
18755;BME280;35061;47.664;9.166;2023-06-10T10:28:15;101188.88;;;24.58;47.80
18755;BME280;35061;47.664;9.166;2023-06-10T10:30:49;101179.92;;;24.64;47.94
18755;BME280;35061;47.664;9.166;2023-06-10T10:33:23;101186.14;;;24.68;47.74
18755;BME280;35061;47.664;9.166;2023-06-10T10:35:54;101175.02;;;24.74;47.89
18755;BME280;35061;47.664;9.166;2023-06-10T10:38:22;101177.96;;;24.82;47.82
18755;BME280;35061;47.664;9.166;2023-06-10T10:40:51;101177.18;;;24.89;47.74
18755;BME280;35061;47.664;9.166;2023-06-10T10:43:19;101170.15;;;24.92;47.64
18755;BME280;35061;47.664;9.166;2023-06-10T10:46:00;101177.34;;;24.99;47.40
18755;BME280;35061;47.664;9.166;2023-06-10T10:48:38;101171.26;;;25.05;46.67
18755;BME280;35061;47.664;9.166;2023-06-10T10:51:07;101168.12;;;25.11;46.85
18755;BME280;35061;47.664;9.166;2023-06-10T10:53:39;101163.84;;;25.19;46.94
18755;BME280;35061;47.664;9.166;2023-06-10T10:56:12;101164.36;;;25.26;46.76
18755;BME280;35061;47.664;9.166;2023-06-10T10:58:41;101160.08;;;25.34;46.60
18755;BME280;35061;47.664;9.166;2023-06-10T11:01:13;101157.27;;;25.44;46.58
18755;BME280;35061;47.664;9.166;2023-06-10T11:03:46;101153.57;;;25.52;45.93
18755;BME280;35061;47.664;9.166;2023-06-10T11:06:17;101158.41;;;25.57;45.52
18755;BME280;35061;47.664;9.166;2023-06-10T11:08:46;101151.18;;;25.58;45.59
18755;BME280;35061;47.664;9.166;2023-06-10T11:11:26;101149.22;;;25.60;45.29
18755;BME280;35061;47.664;9.166;2023-06-10T11:16:39;101148.34;;;25.75;45.14
18755;BME280;35061;47.664;9.166;2023-06-10T11:19:09;101141.05;;;25.84;45.05
18755;BME280;35061;47.664;9.166;2023-06-10T11:21:59;101139.64;;;25.93;45.15
18755;BME280;35061;47.664;9.166;2023-06-10T11:24:29;101134.47;;;26.01;44.28
18755;BME280;35061;47.664;9.166;2023-06-10T11:27:25;101136.23;;;26.04;44.59
18755;BME280;35061;47.664;9.166;2023-06-10T11:32:33;101129.89;;;26.16;43.86
18755;BME280;35061;47.664;9.166;2023-06-10T11:35:05;101139.87;;;26.21;43.86
18755;BME280;35061;47.664;9.166;2023-06-10T11:37:35;101131.98;;;26.23;43.58
18755;BME280;35061;47.664;9.166;2023-06-10T11:40:04;101134.70;;;26.29;43.69
18755;BME280;35061;47.664;9.166;2023-06-10T11:42:39;101141.89;;;26.36;43.44
18755;BME280;35061;47.664;9.166;2023-06-10T11:45:08;101143.95;;;26.43;43.38
18755;BME280;35061;47.664;9.166;2023-06-10T11:47:36;101135.71;;;26.49;43.31
18755;BME280;35061;47.664;9.166;2023-06-10T11:50:05;101135.62;;;26.57;43.12
18755;BME280;35061;47.664;9.166;2023-06-10T11:52:33;101126.72;;;26.65;42.99
18755;BME280;35061;47.664;9.166;2023-06-10T11:55:06;101125.71;;;26.70;42.60
18755;BME280;35061;47.664;9.166;2023-06-10T11:57:36;101124.66;;;26.75;42.37
18755;BME280;35061;47.664;9.166;2023-06-10T12:00:06;101118.97;;;26.77;42.02
18755;BME280;35061;47.664;9.166;2023-06-10T12:02:35;101126.76;;;26.82;41.92
18755;BME280;35061;47.664;9.166;2023-06-10T12:05:12;101121.42;;;26.88;41.91
18755;BME280;35061;47.664;9.166;2023-06-10T12:07:41;101111.74;;;26.96;42.00
18755;BME280;35061;47.664;9.166;2023-06-10T12:10:09;101121.06;;;27.02;41.94
18755;BME280;35061;47.664;9.166;2023-06-10T12:12:51;101117.89;;;27.08;41.60
18755;BME280;35061;47.664;9.166;2023-06-10T12:15:26;101110.34;;;27.14;41.48
18755;BME280;35061;47.664;9.166;2023-06-10T12:17:56;101105.44;;;27.17;41.18
18755;BME280;35061;47.664;9.166;2023-06-10T12:20:28;101098.50;;;27.22;41.18
18755;BME280;35061;47.664;9.166;2023-06-10T12:22:57;101096.84;;;27.29;40.61
18755;BME280;35061;47.664;9.166;2023-06-10T12:25:29;101105.83;;;27.31;40.83
18755;BME280;35061;47.664;9.166;2023-06-10T12:27:58;101100.46;;;27.37;40.75
18755;BME280;35061;47.664;9.166;2023-06-10T12:30:27;101096.31;;;27.40;40.70
18755;BME280;35061;47.664;9.166;2023-06-10T12:32:55;101092.59;;;27.40;40.67
18755;BME280;35061;47.664;9.166;2023-06-10T12:35:26;101093.37;;;27.40;40.21
18755;BME280;35061;47.664;9.166;2023-06-10T12:38:05;101093.53;;;27.42;39.95
18755;BME280;35061;47.664;9.166;2023-06-10T12:40:39;101087.22;;;27.46;39.96
18755;BME280;35061;47.664;9.166;2023-06-10T12:43:11;101088.30;;;27.51;39.92
18755;BME280;35061;47.664;9.166;2023-06-10T12:45:40;101084.44;;;27.48;39.74
18755;BME280;35061;47.664;9.166;2023-06-10T12:48:12;101085.03;;;27.47;39.72
18755;BME280;35061;47.664;9.166;2023-06-10T12:50:55;101085.75;;;27.55;40.00
18755;BME280;35061;47.664;9.166;2023-06-10T12:53:24;101084.67;;;27.60;39.71
18755;BME280;35061;47.664;9.166;2023-06-10T12:55:54;101086.56;;;27.65;39.74
18755;BME280;35061;47.664;9.166;2023-06-10T12:58:22;101084.73;;;27.70;39.65
18755;BME280;35061;47.664;9.166;2023-06-10T13:00:50;101088.27;;;27.68;38.83
18755;BME280;35061;47.664;9.166;2023-06-10T13:03:20;101080.84;;;27.67;38.22
18755;BME280;35061;47.664;9.166;2023-06-10T13:05:49;101083.79;;;27.67;38.01
18755;BME280;35061;47.664;9.166;2023-06-10T13:08:17;101085.32;;;27.68;37.67
18755;BME280;35061;47.664;9.166;2023-06-10T13:10:45;101083.79;;;27.67;37.33